HEAX/ALY METAR and TAF weather

Enter ICAO airport designator
Station Type Date Time Source
HEAX METAR 2018/12/10 17:00 UTC NOAA

HEAX 101700Z 23008KT 9999 SCT020 17/12 Q1017 NOSIG


Station Type Date Time Source
HEAX Decoded METAR 2018/12/10 17:00 UTC NOAA

Alexandria / Nouzha, Egypt (HEAX) 31-12N 029-57E 7M
Dec 10, 2018 - 12:00 PM EST / 2018.12.10 1700 UTC
Wind: from the SW (230 degrees) at 9 MPH (8 KT):0
Visibility: greater than 7 mile(s):0
Sky conditions: partly cloudy
Temperature: 62 F (17 C)
Dew Point: 53 F (12 C)
Relative Humidity: 72%
Pressure (altimeter): 30.03 in. Hg (1017 hPa)
ob: HEAX 101700Z 23008KT 9999 SCT020 17/12 Q1017 NOSIG
cycle: 17

Station Type Date Time Source
HEAX TAF 2018/12/10 18:54 UTC NOAA

TAF HEAX 101700Z 1018/1124 24010G20KT 9999 SCT020


Example: see airport list